sensor_id;sensor_type;location;lat;lon;timestamp;P1;durP1;ratioP1;P2;durP2;ratioP2
71162;SDS011;58858;50.948;6.566;2023-09-18T00:07:06;8.27;;;3.58;;
71162;SDS011;58858;50.948;6.566;2023-09-18T00:17:07;4.85;;;3.33;;
71162;SDS011;58858;50.948;6.566;2023-09-18T00:27:09;4.65;;;2.80;;
71162;SDS011;58858;50.948;6.566;2023-09-18T00:37:12;4.65;;;3.45;;
71162;SDS011;58858;50.948;6.566;2023-09-18T00:47:14;6.95;;;4.18;;
71162;SDS011;58858;50.948;6.566;2023-09-18T00:57:16;6.15;;;4.72;;
71162;SDS011;58858;50.948;6.566;2023-09-18T01:07:17;7.90;;;4.70;;
71162;SDS011;58858;50.948;6.566;2023-09-18T01:17:20;7.75;;;4.82;;
71162;SDS011;58858;50.948;6.566;2023-09-18T01:27:22;7.65;;;3.92;;
71162;SDS011;58858;50.948;6.566;2023-09-18T01:37:24;6.70;;;4.65;;
71162;SDS011;58858;50.948;6.566;2023-09-18T01:47:27;8.50;;;4.25;;
71162;SDS011;58858;50.948;6.566;2023-09-18T01:57:28;5.35;;;3.78;;
71162;SDS011;58858;50.948;6.566;2023-09-18T02:07:29;9.65;;;5.22;;
71162;SDS011;58858;50.948;6.566;2023-09-18T02:17:32;9.70;;;5.45;;
71162;SDS011;58858;50.948;6.566;2023-09-18T02:27:33;10.95;;;5.50;;
71162;SDS011;58858;50.948;6.566;2023-09-18T02:37:34;7.97;;;4.55;;
71162;SDS011;58858;50.948;6.566;2023-09-18T02:47:35;7.85;;;4.07;;
71162;SDS011;58858;50.948;6.566;2023-09-18T02:57:38;13.02;;;3.50;;
71162;SDS011;58858;50.948;6.566;2023-09-18T03:07:39;8.20;;;4.38;;
71162;SDS011;58858;50.948;6.566;2023-09-18T03:17:41;7.78;;;4.20;;
71162;SDS011;58858;50.948;6.566;2023-09-18T03:27:43;11.77;;;4.72;;
71162;SDS011;58858;50.948;6.566;2023-09-18T03:37:45;7.85;;;3.55;;
71162;SDS011;58858;50.948;6.566;2023-09-18T03:47:46;5.57;;;3.72;;
71162;SDS011;58858;50.948;6.566;2023-09-18T03:57:51;7.15;;;2.85;;
71162;SDS011;58858;50.948;6.566;2023-09-18T04:07:53;11.63;;;3.00;;
71162;SDS011;58858;50.948;6.566;2023-09-18T04:17:54;7.30;;;3.25;;
71162;SDS011;58858;50.948;6.566;2023-09-18T04:27:55;5.97;;;3.20;;
71162;SDS011;58858;50.948;6.566;2023-09-18T04:37:59;21.70;;;9.90;;
71162;SDS011;58858;50.948;6.566;2023-09-18T04:48:00;5.93;;;3.10;;
71162;SDS011;58858;50.948;6.566;2023-09-18T04:58:01;7.75;;;3.13;;
71162;SDS011;58858;50.948;6.566;2023-09-18T05:08:07;6.82;;;2.45;;
71162;SDS011;58858;50.948;6.566;2023-09-18T05:18:08;4.55;;;1.55;;
71162;SDS011;58858;50.948;6.566;2023-09-18T05:28:09;2.78;;;1.25;;
71162;SDS011;58858;50.948;6.566;2023-09-18T05:38:12;8.25;;;2.55;;
71162;SDS011;58858;50.948;6.566;2023-09-18T05:48:18;6.55;;;3.15;;
71162;SDS011;58858;50.948;6.566;2023-09-18T05:58:19;9.77;;;2.45;;
71162;SDS011;58858;50.948;6.566;2023-09-18T06:08:25;6.68;;;2.20;;
71162;SDS011;58858;50.948;6.566;2023-09-18T06:18:26;4.22;;;1.50;;
71162;SDS011;58858;50.948;6.566;2023-09-18T06:28:29;4.70;;;2.30;;
71162;SDS011;58858;50.948;6.566;2023-09-18T06:38:30;3.25;;;1.00;;
71162;SDS011;58858;50.948;6.566;2023-09-18T06:48:31;2.40;;;0.90;;
71162;SDS011;58858;50.948;6.566;2023-09-18T06:58:33;3.47;;;1.55;;
71162;SDS011;58858;50.948;6.566;2023-09-18T07:08:35;3.15;;;0.90;;
71162;SDS011;58858;50.948;6.566;2023-09-18T07:18:37;5.57;;;2.28;;
71162;SDS011;58858;50.948;6.566;2023-09-18T07:28:38;1.77;;;1.00;;
71162;SDS011;58858;50.948;6.566;2023-09-18T07:38:39;5.28;;;1.27;;
71162;SDS011;58858;50.948;6.566;2023-09-18T07:48:43;7.23;;;1.20;;
71162;SDS011;58858;50.948;6.566;2023-09-18T07:58:44;1.88;;;1.02;;
71162;SDS011;58858;50.948;6.566;2023-09-18T08:08:48;2.78;;;1.48;;
71162;SDS011;58858;50.948;6.566;2023-09-18T08:18:50;1.20;;;1.10;;
71162;SDS011;58858;50.948;6.566;2023-09-18T08:28:53;3.83;;;1.27;;
71162;SDS011;58858;50.948;6.566;2023-09-18T08:38:54;2.05;;;1.10;;
71162;SDS011;58858;50.948;6.566;2023-09-18T08:48:56;6.57;;;1.13;;
71162;SDS011;58858;50.948;6.566;2023-09-18T08:58:58;2.60;;;0.90;;
71162;SDS011;58858;50.948;6.566;2023-09-18T09:09:00;2.08;;;1.08;;
71162;SDS011;58858;50.948;6.566;2023-09-18T09:19:02;2.53;;;0.95;;
71162;SDS011;58858;50.948;6.566;2023-09-18T09:29:14;2.70;;;1.05;;
71162;SDS011;58858;50.948;6.566;2023-09-18T09:39:21;2.00;;;1.05;;
71162;SDS011;58858;50.948;6.566;2023-09-18T09:49:25;1.90;;;1.57;;
71162;SDS011;58858;50.948;6.566;2023-09-18T09:59:30;2.88;;;1.27;;
71162;SDS011;58858;50.948;6.566;2023-09-18T10:09:36;1.35;;;1.20;;
71162;SDS011;58858;50.948;6.566;2023-09-18T10:30:21;2.47;;;1.05;;
71162;SDS011;58858;50.948;6.566;2023-09-18T10:40:23;2.42;;;1.35;;
71162;SDS011;58858;50.948;6.566;2023-09-18T10:50:27;2.53;;;1.20;;
71162;SDS011;58858;50.948;6.566;2023-09-18T11:00:29;3.88;;;1.20;;
71162;SDS011;58858;50.948;6.566;2023-09-18T11:10:31;3.80;;;1.02;;
71162;SDS011;58858;50.948;6.566;2023-09-18T11:42:18;3.33;;;1.10;;
71162;SDS011;58858;50.948;6.566;2023-09-18T12:24:03;3.15;;;1.05;;
71162;SDS011;58858;50.948;6.566;2023-09-18T12:46:02;1.27;;;1.17;;
71162;SDS011;58858;50.948;6.566;2023-09-18T12:56:09;4.65;;;1.20;;
71162;SDS011;58858;50.948;6.566;2023-09-18T13:06:19;3.88;;;1.80;;
71162;SDS011;58858;50.948;6.566;2023-09-18T13:16:21;2.25;;;1.17;;
71162;SDS011;58858;50.948;6.566;2023-09-18T13:26:23;2.35;;;1.13;;
71162;SDS011;58858;50.948;6.566;2023-09-18T13:36:24;2.35;;;1.20;;
71162;SDS011;58858;50.948;6.566;2023-09-18T13:46:29;3.58;;;1.08;;
71162;SDS011;58858;50.948;6.566;2023-09-18T13:56:30;2.40;;;1.27;;
71162;SDS011;58858;50.948;6.566;2023-09-18T14:06:33;2.05;;;1.10;;
71162;SDS011;58858;50.948;6.566;2023-09-18T14:16:36;9.77;;;1.87;;
71162;SDS011;58858;50.948;6.566;2023-09-18T14:26:41;6.70;;;1.40;;
71162;SDS011;58858;50.948;6.566;2023-09-18T14:36:42;3.22;;;1.40;;
71162;SDS011;58858;50.948;6.566;2023-09-18T15:08:29;3.85;;;1.50;;
71162;SDS011;58858;50.948;6.566;2023-09-18T15:18:30;3.88;;;1.42;;
71162;SDS011;58858;50.948;6.566;2023-09-18T15:28:34;2.08;;;1.20;;
71162;SDS011;58858;50.948;6.566;2023-09-18T15:38:35;3.28;;;1.40;;
71162;SDS011;58858;50.948;6.566;2023-09-18T15:59:01;5.10;;;1.45;;
71162;SDS011;58858;50.948;6.566;2023-09-18T16:09:11;5.00;;;1.27;;
71162;SDS011;58858;50.948;6.566;2023-09-18T16:19:57;6.07;;;1.20;;
71162;SDS011;58858;50.948;6.566;2023-09-18T16:29:59;2.67;;;1.35;;
71162;SDS011;58858;50.948;6.566;2023-09-18T16:40:13;3.47;;;1.30;;
71162;SDS011;58858;50.948;6.566;2023-09-18T16:50:14;2.70;;;1.35;;
71162;SDS011;58858;50.948;6.566;2023-09-18T17:00:27;2.75;;;1.50;;
71162;SDS011;58858;50.948;6.566;2023-09-18T17:10:29;7.30;;;1.42;;
71162;SDS011;58858;50.948;6.566;2023-09-18T17:20:30;5.68;;;1.42;;
71162;SDS011;58858;50.948;6.566;2023-09-18T17:30:31;2.20;;;1.30;;
71162;SDS011;58858;50.948;6.566;2023-09-18T17:40:34;3.45;;;1.35;;
71162;SDS011;58858;50.948;6.566;2023-09-18T17:50:35;2.58;;;1.33;;
71162;SDS011;58858;50.948;6.566;2023-09-18T18:21:38;3.00;;;1.20;;
71162;SDS011;58858;50.948;6.566;2023-09-18T18:31:40;2.80;;;1.25;;
71162;SDS011;58858;50.948;6.566;2023-09-18T18:41:41;1.92;;;0.98;;
71162;SDS011;58858;50.948;6.566;2023-09-18T18:51:42;1.42;;;0.98;;
71162;SDS011;58858;50.948;6.566;2023-09-18T19:01:44;2.17;;;1.00;;
71162;SDS011;58858;50.948;6.566;2023-09-18T19:11:45;1.73;;;1.00;;
71162;SDS011;58858;50.948;6.566;2023-09-18T19:21:46;1.20;;;1.08;;
71162;SDS011;58858;50.948;6.566;2023-09-18T19:31:47;3.17;;;0.93;;
71162;SDS011;58858;50.948;6.566;2023-09-18T19:41:50;2.00;;;0.82;;
71162;SDS011;58858;50.948;6.566;2023-09-18T19:51:51;1.40;;;0.80;;
71162;SDS011;58858;50.948;6.566;2023-09-18T20:01:52;4.47;;;1.30;;
71162;SDS011;58858;50.948;6.566;2023-09-18T20:11:54;1.83;;;1.02;;
71162;SDS011;58858;50.948;6.566;2023-09-18T20:21:55;5.72;;;1.67;;
71162;SDS011;58858;50.948;6.566;2023-09-18T20:31:56;4.50;;;1.83;;
71162;SDS011;58858;50.948;6.566;2023-09-18T20:41:57;3.75;;;1.73;;
71162;SDS011;58858;50.948;6.566;2023-09-18T20:52:02;3.50;;;1.20;;
71162;SDS011;58858;50.948;6.566;2023-09-18T21:02:04;3.05;;;1.30;;
71162;SDS011;58858;50.948;6.566;2023-09-18T21:12:07;5.18;;;2.53;;
71162;SDS011;58858;50.948;6.566;2023-09-18T21:22:09;3.38;;;1.30;;
71162;SDS011;58858;50.948;6.566;2023-09-18T21:32:11;3.75;;;1.17;;
71162;SDS011;58858;50.948;6.566;2023-09-18T21:42:12;4.97;;;2.08;;
71162;SDS011;58858;50.948;6.566;2023-09-18T21:52:14;5.68;;;2.08;;
71162;SDS011;58858;50.948;6.566;2023-09-18T22:02:15;4.05;;;1.58;;
71162;SDS011;58858;50.948;6.566;2023-09-18T22:12:16;7.88;;;1.83;;
71162;SDS011;58858;50.948;6.566;2023-09-18T22:22:19;2.75;;;1.33;;
71162;SDS011;58858;50.948;6.566;2023-09-18T22:32:20;6.90;;;1.60;;
71162;SDS011;58858;50.948;6.566;2023-09-18T23:02:41;4.50;;;1.65;;
71162;SDS011;58858;50.948;6.566;2023-09-18T23:12:43;5.60;;;1.60;;
71162;SDS011;58858;50.948;6.566;2023-09-18T23:22:44;3.40;;;1.50;;
71162;SDS011;58858;50.948;6.566;2023-09-18T23:42:53;5.30;;;1.43;;
71162;SDS011;58858;50.948;6.566;2023-09-18T23:52:54;5.68;;;1.65;;
